Springhill, Canada
Current Conditions -  °F | °C
As of 5:00 AM on Monday 24 Nov 2014 (Local Time) from CYQM Reporting Station
Overcast Overcast  
Wind Chill: 33°   Ceiling: 3900
Heat Index: 37°   Visibility: 15mi
Dew Point: 30°   Wind: 6mph
Humidity: 75%   Direction: 130°SE
Pressure: 30.18"   Gusts: NA
Location:  45.65°N, 64.06°W
Report Text: CYQM 240900Z 13005KT 15SM OVC039 03/M01 A3018 RMK SC8 PRESFR SLP222
Loading
Personal Weather Stations






























Interactive Weather Map New forecast layout! Learn more

10-Day Weather Forecast

Advertisements
Track Severe Weather on mobile